sensor_id;sensor_type;location;lat;lon;timestamp;P1;durP1;ratioP1;P2;durP2;ratioP2
74894;SDS011;63447;49.446;8.666;2024-01-11T00:01:02;26.10;;;12.82;;
74894;SDS011;63447;49.446;8.666;2024-01-11T00:03:27;27.77;;;13.50;;
74894;SDS011;63447;49.446;8.666;2024-01-11T00:05:52;30.83;;;13.67;;
74894;SDS011;63447;49.446;8.666;2024-01-11T00:08:18;32.60;;;13.90;;
74894;SDS011;63447;49.446;8.666;2024-01-11T00:10:46;30.25;;;13.52;;
74894;SDS011;63447;49.446;8.666;2024-01-11T00:13:11;27.40;;;13.13;;
74894;SDS011;63447;49.446;8.666;2024-01-11T00:15:36;29.47;;;13.03;;
74894;SDS011;63447;49.446;8.666;2024-01-11T00:18:02;30.42;;;13.32;;
74894;SDS011;63447;49.446;8.666;2024-01-11T00:20:27;30.02;;;14.45;;
74894;SDS011;63447;49.446;8.666;2024-01-11T00:22:53;27.97;;;13.60;;
74894;SDS011;63447;49.446;8.666;2024-01-11T00:25:20;29.55;;;13.73;;
74894;SDS011;63447;49.446;8.666;2024-01-11T00:27:46;29.37;;;13.97;;
74894;SDS011;63447;49.446;8.666;2024-01-11T00:30:11;27.93;;;14.33;;
74894;SDS011;63447;49.446;8.666;2024-01-11T00:32:36;29.83;;;13.82;;
74894;SDS011;63447;49.446;8.666;2024-01-11T00:35:02;30.52;;;12.90;;
74894;SDS011;63447;49.446;8.666;2024-01-11T00:37:28;29.15;;;13.60;;
74894;SDS011;63447;49.446;8.666;2024-01-11T00:39:53;30.10;;;14.03;;
74894;SDS011;63447;49.446;8.666;2024-01-11T00:42:18;30.53;;;13.80;;
74894;SDS011;63447;49.446;8.666;2024-01-11T00:44:44;27.63;;;13.47;;
74894;SDS011;63447;49.446;8.666;2024-01-11T00:47:12;31.02;;;13.73;;
74894;SDS011;63447;49.446;8.666;2024-01-11T00:49:40;30.55;;;13.63;;
74894;SDS011;63447;49.446;8.666;2024-01-11T00:52:05;29.42;;;13.55;;
74894;SDS011;63447;49.446;8.666;2024-01-11T00:54:31;29.80;;;13.95;;
74894;SDS011;63447;49.446;8.666;2024-01-11T00:56:59;27.00;;;13.50;;
74894;SDS011;63447;49.446;8.666;2024-01-11T00:59:24;25.50;;;12.53;;
74894;SDS011;63447;49.446;8.666;2024-01-11T01:01:50;29.70;;;13.67;;
74894;SDS011;63447;49.446;8.666;2024-01-11T01:04:15;28.30;;;13.48;;
74894;SDS011;63447;49.446;8.666;2024-01-11T01:06:41;29.30;;;13.68;;
74894;SDS011;63447;49.446;8.666;2024-01-11T01:09:09;30.83;;;13.57;;
74894;SDS011;63447;49.446;8.666;2024-01-11T01:11:34;26.45;;;13.10;;
74894;SDS011;63447;49.446;8.666;2024-01-11T01:14:00;28.10;;;12.93;;
74894;SDS011;63447;49.446;8.666;2024-01-11T01:16:25;28.05;;;12.32;;
74894;SDS011;63447;49.446;8.666;2024-01-11T01:18:51;26.50;;;13.57;;
74894;SDS011;63447;49.446;8.666;2024-01-11T01:21:18;31.88;;;13.13;;
74894;SDS011;63447;49.446;8.666;2024-01-11T01:23:44;28.35;;;13.73;;
74894;SDS011;63447;49.446;8.666;2024-01-11T01:26:09;32.63;;;14.63;;
74894;SDS011;63447;49.446;8.666;2024-01-11T01:28:34;32.35;;;14.68;;
74894;SDS011;63447;49.446;8.666;2024-01-11T01:33:26;28.37;;;12.83;;
74894;SDS011;63447;49.446;8.666;2024-01-11T01:35:54;29.60;;;12.38;;
74894;SDS011;63447;49.446;8.666;2024-01-11T01:38:22;30.80;;;12.65;;
74894;SDS011;63447;49.446;8.666;2024-01-11T01:40:48;26.55;;;13.15;;
74894;SDS011;63447;49.446;8.666;2024-01-11T01:43:13;28.37;;;12.70;;
74894;SDS011;63447;49.446;8.666;2024-01-11T01:45:41;28.80;;;13.52;;
74894;SDS011;63447;49.446;8.666;2024-01-11T01:48:07;26.77;;;12.80;;
74894;SDS011;63447;49.446;8.666;2024-01-11T01:50:32;28.02;;;12.20;;
74894;SDS011;63447;49.446;8.666;2024-01-11T01:53:00;29.05;;;12.60;;
74894;SDS011;63447;49.446;8.666;2024-01-11T01:55:26;26.67;;;12.75;;
74894;SDS011;63447;49.446;8.666;2024-01-11T01:57:53;26.60;;;12.23;;
74894;SDS011;63447;49.446;8.666;2024-01-11T02:00:20;29.80;;;13.50;;
74894;SDS011;63447;49.446;8.666;2024-01-11T02:02:46;31.60;;;13.90;;
74894;SDS011;63447;49.446;8.666;2024-01-11T02:05:15;29.85;;;13.18;;
74894;SDS011;63447;49.446;8.666;2024-01-11T02:07:42;28.58;;;12.63;;
74894;SDS011;63447;49.446;8.666;2024-01-11T02:10:09;28.23;;;13.50;;
74894;SDS011;63447;49.446;8.666;2024-01-11T02:12:36;24.60;;;12.32;;
74894;SDS011;63447;49.446;8.666;2024-01-11T02:15:05;27.15;;;12.57;;
74894;SDS011;63447;49.446;8.666;2024-01-11T02:17:31;25.58;;;12.82;;
74894;SDS011;63447;49.446;8.666;2024-01-11T02:19:57;27.60;;;13.48;;
74894;SDS011;63447;49.446;8.666;2024-01-11T02:22:24;25.08;;;11.60;;
74894;SDS011;63447;49.446;8.666;2024-01-11T02:24:55;31.63;;;12.15;;
74894;SDS011;63447;49.446;8.666;2024-01-11T02:27:22;24.15;;;11.95;;
74894;SDS011;63447;49.446;8.666;2024-01-11T02:29:50;28.75;;;12.52;;
74894;SDS011;63447;49.446;8.666;2024-01-11T02:32:18;26.02;;;12.00;;
74894;SDS011;63447;49.446;8.666;2024-01-11T02:34:46;25.63;;;12.27;;
74894;SDS011;63447;49.446;8.666;2024-01-11T02:37:12;27.25;;;12.40;;
74894;SDS011;63447;49.446;8.666;2024-01-11T02:39:38;27.77;;;11.98;;
74894;SDS011;63447;49.446;8.666;2024-01-11T02:44:32;26.90;;;11.27;;
74894;SDS011;63447;49.446;8.666;2024-01-11T02:46:57;26.88;;;11.43;;
74894;SDS011;63447;49.446;8.666;2024-01-11T02:49:23;25.55;;;11.95;;
74894;SDS011;63447;49.446;8.666;2024-01-11T02:51:48;26.07;;;11.77;;
74894;SDS011;63447;49.446;8.666;2024-01-11T02:54:13;26.87;;;11.13;;
74894;SDS011;63447;49.446;8.666;2024-01-11T02:56:39;27.20;;;12.20;;
74894;SDS011;63447;49.446;8.666;2024-01-11T02:59:04;24.70;;;11.07;;
74894;SDS011;63447;49.446;8.666;2024-01-11T03:01:32;25.13;;;11.32;;
74894;SDS011;63447;49.446;8.666;2024-01-11T03:04:00;24.65;;;11.77;;
74894;SDS011;63447;49.446;8.666;2024-01-11T03:06:25;24.08;;;11.40;;
74894;SDS011;63447;49.446;8.666;2024-01-11T03:08:51;28.10;;;12.77;;
74894;SDS011;63447;49.446;8.666;2024-01-11T03:11:18;26.30;;;12.30;;
74894;SDS011;63447;49.446;8.666;2024-01-11T03:13:44;24.67;;;11.18;;
74894;SDS011;63447;49.446;8.666;2024-01-11T03:16:09;27.10;;;11.75;;
74894;SDS011;63447;49.446;8.666;2024-01-11T03:18:37;23.52;;;11.20;;
74894;SDS011;63447;49.446;8.666;2024-01-11T03:21:03;25.67;;;11.85;;
74894;SDS011;63447;49.446;8.666;2024-01-11T03:23:28;26.73;;;11.68;;
74894;SDS011;63447;49.446;8.666;2024-01-11T03:25:54;26.88;;;11.73;;
74894;SDS011;63447;49.446;8.666;2024-01-11T03:28:22;25.58;;;12.02;;
74894;SDS011;63447;49.446;8.666;2024-01-11T03:30:47;23.23;;;11.10;;
74894;SDS011;63447;49.446;8.666;2024-01-11T03:33:15;26.50;;;11.40;;
74894;SDS011;63447;49.446;8.666;2024-01-11T03:35:40;25.17;;;11.27;;
74894;SDS011;63447;49.446;8.666;2024-01-11T03:38:10;25.05;;;10.48;;
74894;SDS011;63447;49.446;8.666;2024-01-11T03:40:38;28.50;;;11.43;;
74894;SDS011;63447;49.446;8.666;2024-01-11T03:43:04;25.17;;;11.37;;
74894;SDS011;63447;49.446;8.666;2024-01-11T03:45:33;25.27;;;11.43;;
74894;SDS011;63447;49.446;8.666;2024-01-11T03:47:59;25.13;;;11.35;;
74894;SDS011;63447;49.446;8.666;2024-01-11T03:50:24;26.60;;;12.17;;
74894;SDS011;63447;49.446;8.666;2024-01-11T03:52:50;28.20;;;11.43;;
74894;SDS011;63447;49.446;8.666;2024-01-11T03:55:15;25.53;;;11.33;;
74894;SDS011;63447;49.446;8.666;2024-01-11T03:57:40;26.20;;;11.15;;
74894;SDS011;63447;49.446;8.666;2024-01-11T04:00:09;23.33;;;10.82;;
74894;SDS011;63447;49.446;8.666;2024-01-11T04:02:35;28.88;;;10.98;;
74894;SDS011;63447;49.446;8.666;2024-01-11T04:05:18;21.70;;;10.57;;
74894;SDS011;63447;49.446;8.666;2024-01-11T04:07:46;25.80;;;11.00;;
74894;SDS011;63447;49.446;8.666;2024-01-11T04:10:15;24.92;;;11.35;;
74894;SDS011;63447;49.446;8.666;2024-01-11T04:12:41;24.67;;;11.32;;
74894;SDS011;63447;49.446;8.666;2024-01-11T04:15:07;22.80;;;10.80;;
74894;SDS011;63447;49.446;8.666;2024-01-11T04:17:33;24.00;;;10.95;;
74894;SDS011;63447;49.446;8.666;2024-01-11T04:19:58;20.65;;;10.13;;
74894;SDS011;63447;49.446;8.666;2024-01-11T04:22:24;23.17;;;11.35;;
74894;SDS011;63447;49.446;8.666;2024-01-11T04:24:52;23.87;;;10.83;;
74894;SDS011;63447;49.446;8.666;2024-01-11T04:27:19;27.73;;;11.50;;
74894;SDS011;63447;49.446;8.666;2024-01-11T04:29:45;26.05;;;11.38;;
74894;SDS011;63447;49.446;8.666;2024-01-11T04:32:10;24.30;;;10.27;;
74894;SDS011;63447;49.446;8.666;2024-01-11T04:34:36;23.13;;;10.50;;
74894;SDS011;63447;49.446;8.666;2024-01-11T04:37:03;22.50;;;10.73;;
74894;SDS011;63447;49.446;8.666;2024-01-11T04:39:29;23.73;;;10.65;;
74894;SDS011;63447;49.446;8.666;2024-01-11T04:41:58;26.02;;;11.48;;
74894;SDS011;63447;49.446;8.666;2024-01-11T04:44:25;22.27;;;10.63;;
74894;SDS011;63447;49.446;8.666;2024-01-11T04:46:50;23.83;;;10.95;;
74894;SDS011;63447;49.446;8.666;2024-01-11T04:49:18;25.73;;;10.75;;
74894;SDS011;63447;49.446;8.666;2024-01-11T04:51:43;24.57;;;10.63;;
74894;SDS011;63447;49.446;8.666;2024-01-11T04:54:09;25.37;;;10.77;;
74894;SDS011;63447;49.446;8.666;2024-01-11T04:56:36;25.08;;;11.10;;
74894;SDS011;63447;49.446;8.666;2024-01-11T04:59:01;24.83;;;10.67;;
74894;SDS011;63447;49.446;8.666;2024-01-11T05:01:27;24.85;;;10.93;;
74894;SDS011;63447;49.446;8.666;2024-01-11T05:03:52;23.83;;;11.43;;
74894;SDS011;63447;49.446;8.666;2024-01-11T05:06:20;25.08;;;11.55;;
74894;SDS011;63447;49.446;8.666;2024-01-11T05:08:47;24.85;;;10.98;;
74894;SDS011;63447;49.446;8.666;2024-01-11T05:11:18;21.85;;;10.27;;
74894;SDS011;63447;49.446;8.666;2024-01-11T05:13:46;24.95;;;11.23;;
74894;SDS011;63447;49.446;8.666;2024-01-11T05:16:21;23.75;;;10.93;;
74894;SDS011;63447;49.446;8.666;2024-01-11T05:18:50;24.70;;;10.95;;
74894;SDS011;63447;49.446;8.666;2024-01-11T05:21:16;26.05;;;11.30;;
74894;SDS011;63447;49.446;8.666;2024-01-11T05:23:41;21.45;;;10.75;;
74894;SDS011;63447;49.446;8.666;2024-01-11T05:26:07;30.27;;;12.25;;
74894;SDS011;63447;49.446;8.666;2024-01-11T05:31:01;22.13;;;10.47;;
74894;SDS011;63447;49.446;8.666;2024-01-11T05:33:29;26.08;;;10.60;;
74894;SDS011;63447;49.446;8.666;2024-01-11T05:35:55;24.55;;;11.63;;
74894;SDS011;63447;49.446;8.666;2024-01-11T05:38:20;22.03;;;10.63;;
74894;SDS011;63447;49.446;8.666;2024-01-11T05:40:46;24.23;;;10.97;;
74894;SDS011;63447;49.446;8.666;2024-01-11T05:43:11;25.58;;;11.00;;
74894;SDS011;63447;49.446;8.666;2024-01-11T05:45:36;24.80;;;11.63;;
74894;SDS011;63447;49.446;8.666;2024-01-11T05:48:04;29.80;;;11.02;;
74894;SDS011;63447;49.446;8.666;2024-01-11T05:50:31;24.67;;;11.60;;
74894;SDS011;63447;49.446;8.666;2024-01-11T05:52:58;26.38;;;12.35;;
74894;SDS011;63447;49.446;8.666;2024-01-11T05:55:26;26.03;;;11.57;;
74894;SDS011;63447;49.446;8.666;2024-01-11T05:57:54;22.92;;;10.63;;
74894;SDS011;63447;49.446;8.666;2024-01-11T06:00:19;22.73;;;10.45;;
74894;SDS011;63447;49.446;8.666;2024-01-11T06:02:45;22.65;;;10.75;;
74894;SDS011;63447;49.446;8.666;2024-01-11T06:05:12;23.02;;;10.05;;
74894;SDS011;63447;49.446;8.666;2024-01-11T06:07:38;26.88;;;11.45;;
74894;SDS011;63447;49.446;8.666;2024-01-11T06:10:06;28.92;;;10.85;;
74894;SDS011;63447;49.446;8.666;2024-01-11T06:12:33;26.02;;;12.35;;
74894;SDS011;63447;49.446;8.666;2024-01-11T06:15:01;28.38;;;12.77;;
74894;SDS011;63447;49.446;8.666;2024-01-11T06:17:27;25.42;;;12.25;;
74894;SDS011;63447;49.446;8.666;2024-01-11T06:19:55;26.67;;;11.80;;
74894;SDS011;63447;49.446;8.666;2024-01-11T06:22:20;22.17;;;11.90;;
74894;SDS011;63447;49.446;8.666;2024-01-11T06:24:46;22.77;;;11.65;;
74894;SDS011;63447;49.446;8.666;2024-01-11T06:27:11;25.98;;;11.10;;
74894;SDS011;63447;49.446;8.666;2024-01-11T06:29:37;23.40;;;11.18;;
74894;SDS011;63447;49.446;8.666;2024-01-11T06:32:03;24.38;;;11.32;;
74894;SDS011;63447;49.446;8.666;2024-01-11T06:34:28;24.42;;;11.40;;
74894;SDS011;63447;49.446;8.666;2024-01-11T06:36:54;25.30;;;11.82;;
74894;SDS011;63447;49.446;8.666;2024-01-11T06:41:45;21.42;;;10.40;;
74894;SDS011;63447;49.446;8.666;2024-01-11T06:44:11;24.13;;;10.13;;
74894;SDS011;63447;49.446;8.666;2024-01-11T06:46:36;26.17;;;11.40;;
74894;SDS011;63447;49.446;8.666;2024-01-11T06:49:04;27.00;;;11.77;;
74894;SDS011;63447;49.446;8.666;2024-01-11T06:51:29;25.77;;;11.80;;
74894;SDS011;63447;49.446;8.666;2024-01-11T06:53:57;24.88;;;11.80;;
74894;SDS011;63447;49.446;8.666;2024-01-11T06:56:25;26.08;;;11.93;;
74894;SDS011;63447;49.446;8.666;2024-01-11T06:58:50;27.73;;;11.83;;
74894;SDS011;63447;49.446;8.666;2024-01-11T07:01:18;24.17;;;11.32;;
74894;SDS011;63447;49.446;8.666;2024-01-11T07:03:43;28.00;;;12.45;;
74894;SDS011;63447;49.446;8.666;2024-01-11T07:06:09;25.60;;;11.73;;
74894;SDS011;63447;49.446;8.666;2024-01-11T07:08:34;29.33;;;13.33;;
74894;SDS011;63447;49.446;8.666;2024-01-11T07:11:00;23.02;;;11.23;;
74894;SDS011;63447;49.446;8.666;2024-01-11T07:13:29;27.15;;;11.48;;
74894;SDS011;63447;49.446;8.666;2024-01-11T07:15:58;25.05;;;11.52;;
74894;SDS011;63447;49.446;8.666;2024-01-11T07:18:28;27.25;;;12.02;;
74894;SDS011;63447;49.446;8.666;2024-01-11T07:20:53;26.88;;;12.13;;
74894;SDS011;63447;49.446;8.666;2024-01-11T07:23:24;28.38;;;11.93;;
74894;SDS011;63447;49.446;8.666;2024-01-11T07:25:50;31.07;;;13.20;;
74894;SDS011;63447;49.446;8.666;2024-01-11T07:28:15;26.92;;;12.82;;
74894;SDS011;63447;49.446;8.666;2024-01-11T07:30:42;28.08;;;11.77;;
74894;SDS011;63447;49.446;8.666;2024-01-11T07:33:07;26.58;;;11.60;;
74894;SDS011;63447;49.446;8.666;2024-01-11T07:37:59;27.20;;;10.87;;
74894;SDS011;63447;49.446;8.666;2024-01-11T07:40:27;26.38;;;12.43;;
74894;SDS011;63447;49.446;8.666;2024-01-11T07:42:56;27.70;;;11.98;;
74894;SDS011;63447;49.446;8.666;2024-01-11T07:45:21;30.08;;;13.40;;
74894;SDS011;63447;49.446;8.666;2024-01-11T07:47:47;25.77;;;12.18;;
74894;SDS011;63447;49.446;8.666;2024-01-11T07:50:13;29.88;;;12.70;;
74894;SDS011;63447;49.446;8.666;2024-01-11T07:52:41;29.58;;;13.75;;
74894;SDS011;63447;49.446;8.666;2024-01-11T07:55:06;32.53;;;13.95;;
74894;SDS011;63447;49.446;8.666;2024-01-11T07:59:59;32.00;;;12.30;;
74894;SDS011;63447;49.446;8.666;2024-01-11T08:02:27;29.15;;;13.48;;
74894;SDS011;63447;49.446;8.666;2024-01-11T08:04:52;28.38;;;13.40;;
74894;SDS011;63447;49.446;8.666;2024-01-11T08:07:19;31.92;;;15.13;;
74894;SDS011;63447;49.446;8.666;2024-01-11T08:09:47;39.30;;;14.82;;
74894;SDS011;63447;49.446;8.666;2024-01-11T08:12:17;34.42;;;15.43;;
74894;SDS011;63447;49.446;8.666;2024-01-11T08:14:43;36.08;;;15.07;;
74894;SDS011;63447;49.446;8.666;2024-01-11T08:17:13;34.88;;;16.08;;
74894;SDS011;63447;49.446;8.666;2024-01-11T08:19:41;38.70;;;16.88;;
74894;SDS011;63447;49.446;8.666;2024-01-11T08:22:10;36.78;;;17.00;;
74894;SDS011;63447;49.446;8.666;2024-01-11T08:27:01;34.75;;;15.63;;
74894;SDS011;63447;49.446;8.666;2024-01-11T08:29:27;38.85;;;16.00;;
74894;SDS011;63447;49.446;8.666;2024-01-11T08:31:53;35.75;;;15.48;;
74894;SDS011;63447;49.446;8.666;2024-01-11T08:34:21;35.60;;;16.83;;
74894;SDS011;63447;49.446;8.666;2024-01-11T08:36:51;36.03;;;15.88;;
74894;SDS011;63447;49.446;8.666;2024-01-11T08:39:17;32.67;;;15.02;;
74894;SDS011;63447;49.446;8.666;2024-01-11T08:41:42;37.13;;;16.67;;
74894;SDS011;63447;49.446;8.666;2024-01-11T08:44:08;34.40;;;16.80;;
74894;SDS011;63447;49.446;8.666;2024-01-11T08:46:34;34.63;;;15.23;;
74894;SDS011;63447;49.446;8.666;2024-01-11T08:49:03;33.35;;;15.70;;
74894;SDS011;63447;49.446;8.666;2024-01-11T08:51:31;34.25;;;15.57;;
74894;SDS011;63447;49.446;8.666;2024-01-11T08:53:57;30.77;;;16.23;;
74894;SDS011;63447;49.446;8.666;2024-01-11T08:56:22;33.30;;;16.25;;
74894;SDS011;63447;49.446;8.666;2024-01-11T08:58:48;38.80;;;16.83;;
74894;SDS011;63447;49.446;8.666;2024-01-11T09:01:14;36.60;;;17.95;;
74894;SDS011;63447;49.446;8.666;2024-01-11T09:03:40;33.55;;;16.17;;
74894;SDS011;63447;49.446;8.666;2024-01-11T09:06:08;33.42;;;16.25;;
74894;SDS011;63447;49.446;8.666;2024-01-11T09:08:33;31.50;;;16.88;;
74894;SDS011;63447;49.446;8.666;2024-01-11T09:10:59;35.50;;;17.40;;
74894;SDS011;63447;49.446;8.666;2024-01-11T09:13:24;36.95;;;18.20;;
74894;SDS011;63447;49.446;8.666;2024-01-11T09:15:51;35.85;;;18.20;;
74894;SDS011;63447;49.446;8.666;2024-01-11T09:20:43;32.58;;;16.67;;
74894;SDS011;63447;49.446;8.666;2024-01-11T09:23:08;34.95;;;16.98;;
74894;SDS011;63447;49.446;8.666;2024-01-11T09:25:34;35.22;;;16.90;;
74894;SDS011;63447;49.446;8.666;2024-01-11T09:28:00;32.65;;;16.48;;
74894;SDS011;63447;49.446;8.666;2024-01-11T09:30:28;33.20;;;16.90;;
74894;SDS011;63447;49.446;8.666;2024-01-11T09:32:54;35.22;;;17.38;;
74894;SDS011;63447;49.446;8.666;2024-01-11T09:35:21;36.78;;;18.48;;
74894;SDS011;63447;49.446;8.666;2024-01-11T09:37:48;37.67;;;18.15;;
74894;SDS011;63447;49.446;8.666;2024-01-11T09:42:39;41.58;;;17.52;;
74894;SDS011;63447;49.446;8.666;2024-01-11T09:47:47;30.98;;;15.45;;
74894;SDS011;63447;49.446;8.666;2024-01-11T09:50:15;38.40;;;16.90;;
74894;SDS011;63447;49.446;8.666;2024-01-11T09:52:48;31.10;;;16.10;;
74894;SDS011;63447;49.446;8.666;2024-01-11T09:55:17;34.58;;;17.45;;
74894;SDS011;63447;49.446;8.666;2024-01-11T09:57:46;31.85;;;17.15;;
74894;SDS011;63447;49.446;8.666;2024-01-11T10:00:13;34.70;;;16.67;;
74894;SDS011;63447;49.446;8.666;2024-01-11T10:02:41;32.70;;;17.13;;
74894;SDS011;63447;49.446;8.666;2024-01-11T10:05:07;38.42;;;18.73;;
74894;SDS011;63447;49.446;8.666;2024-01-11T10:07:32;38.65;;;19.20;;
74894;SDS011;63447;49.446;8.666;2024-01-11T10:09:59;35.35;;;18.75;;
74894;SDS011;63447;49.446;8.666;2024-01-11T10:12:25;34.22;;;18.60;;
74894;SDS011;63447;49.446;8.666;2024-01-11T10:14:52;33.03;;;18.38;;
74894;SDS011;63447;49.446;8.666;2024-01-11T10:17:18;36.92;;;18.95;;
74894;SDS011;63447;49.446;8.666;2024-01-11T10:19:46;32.53;;;17.27;;
74894;SDS011;63447;49.446;8.666;2024-01-11T10:22:15;32.95;;;17.92;;
74894;SDS011;63447;49.446;8.666;2024-01-11T10:24:42;32.88;;;17.75;;
74894;SDS011;63447;49.446;8.666;2024-01-11T10:27:08;33.65;;;18.50;;
74894;SDS011;63447;49.446;8.666;2024-01-11T10:29:34;35.42;;;19.20;;
74894;SDS011;63447;49.446;8.666;2024-01-11T10:32:03;39.35;;;19.90;;
74894;SDS011;63447;49.446;8.666;2024-01-11T10:34:31;40.20;;;20.35;;
74894;SDS011;63447;49.446;8.666;2024-01-11T10:36:58;36.38;;;20.02;;
74894;SDS011;63447;49.446;8.666;2024-01-11T10:39:24;37.78;;;20.85;;
74894;SDS011;63447;49.446;8.666;2024-01-11T10:41:51;38.45;;;21.67;;
74894;SDS011;63447;49.446;8.666;2024-01-11T10:44:21;36.90;;;19.48;;
74894;SDS011;63447;49.446;8.666;2024-01-11T10:46:47;37.92;;;20.38;;
74894;SDS011;63447;49.446;8.666;2024-01-11T10:49:17;36.10;;;19.70;;
74894;SDS011;63447;49.446;8.666;2024-01-11T10:51:44;37.47;;;20.23;;
74894;SDS011;63447;49.446;8.666;2024-01-11T10:54:20;38.90;;;21.20;;
74894;SDS011;63447;49.446;8.666;2024-01-11T10:56:45;34.83;;;19.83;;
74894;SDS011;63447;49.446;8.666;2024-01-11T10:59:12;37.95;;;20.77;;
74894;SDS011;63447;49.446;8.666;2024-01-11T11:01:40;38.88;;;20.67;;
74894;SDS011;63447;49.446;8.666;2024-01-11T11:04:06;36.55;;;21.17;;
74894;SDS011;63447;49.446;8.666;2024-01-11T11:06:34;36.83;;;20.20;;
74894;SDS011;63447;49.446;8.666;2024-01-11T11:09:02;35.55;;;20.67;;
74894;SDS011;63447;49.446;8.666;2024-01-11T11:11:32;34.53;;;20.58;;
74894;SDS011;63447;49.446;8.666;2024-01-11T11:14:00;37.28;;;21.40;;
74894;SDS011;63447;49.446;8.666;2024-01-11T11:16:26;35.78;;;21.73;;
74894;SDS011;63447;49.446;8.666;2024-01-11T11:18:54;35.95;;;20.38;;
74894;SDS011;63447;49.446;8.666;2024-01-11T11:21:20;37.13;;;21.45;;
74894;SDS011;63447;49.446;8.666;2024-01-11T11:23:46;37.35;;;20.40;;
74894;SDS011;63447;49.446;8.666;2024-01-11T11:26:15;34.63;;;21.67;;
74894;SDS011;63447;49.446;8.666;2024-01-11T11:28:42;34.92;;;21.42;;
74894;SDS011;63447;49.446;8.666;2024-01-11T11:31:08;36.90;;;21.95;;
74894;SDS011;63447;49.446;8.666;2024-01-11T11:33:36;35.00;;;19.90;;
74894;SDS011;63447;49.446;8.666;2024-01-11T11:36:02;34.90;;;19.60;;
74894;SDS011;63447;49.446;8.666;2024-01-11T11:38:30;33.45;;;20.95;;
74894;SDS011;63447;49.446;8.666;2024-01-11T11:40:57;34.38;;;20.83;;
74894;SDS011;63447;49.446;8.666;2024-01-11T11:43:25;37.13;;;21.85;;
74894;SDS011;63447;49.446;8.666;2024-01-11T11:45:52;32.25;;;20.85;;
74894;SDS011;63447;49.446;8.666;2024-01-11T11:49:00;33.72;;;21.85;;
74894;SDS011;63447;49.446;8.666;2024-01-11T11:53:42;37.90;;;22.88;;
74894;SDS011;63447;49.446;8.666;2024-01-11T11:56:08;33.03;;;20.83;;
74894;SDS011;63447;49.446;8.666;2024-01-11T11:58:38;34.78;;;20.23;;
74894;SDS011;63447;49.446;8.666;2024-01-11T12:01:04;34.83;;;21.23;;
74894;SDS011;63447;49.446;8.666;2024-01-11T12:05:57;34.15;;;20.92;;
74894;SDS011;63447;49.446;8.666;2024-01-11T12:08:23;37.67;;;21.35;;
74894;SDS011;63447;49.446;8.666;2024-01-11T12:10:49;37.95;;;21.67;;
74894;SDS011;63447;49.446;8.666;2024-01-11T12:13:16;36.13;;;21.48;;
74894;SDS011;63447;49.446;8.666;2024-01-11T12:15:41;36.90;;;20.45;;
74894;SDS011;63447;49.446;8.666;2024-01-11T12:18:07;35.28;;;21.40;;
74894;SDS011;63447;49.446;8.666;2024-01-11T12:20:34;36.78;;;21.45;;
74894;SDS011;63447;49.446;8.666;2024-01-11T12:23:02;35.83;;;21.13;;
74894;SDS011;63447;49.446;8.666;2024-01-11T12:25:31;34.63;;;21.02;;
74894;SDS011;63447;49.446;8.666;2024-01-11T12:27:56;33.78;;;20.63;;
74894;SDS011;63447;49.446;8.666;2024-01-11T12:30:30;33.78;;;20.40;;
74894;SDS011;63447;49.446;8.666;2024-01-11T12:32:55;34.38;;;20.85;;
74894;SDS011;63447;49.446;8.666;2024-01-11T12:35:23;34.15;;;20.02;;
74894;SDS011;63447;49.446;8.666;2024-01-11T12:37:55;34.67;;;21.40;;
74894;SDS011;63447;49.446;8.666;2024-01-11T12:40:23;35.17;;;20.58;;
74894;SDS011;63447;49.446;8.666;2024-01-11T12:42:48;35.70;;;20.63;;
74894;SDS011;63447;49.446;8.666;2024-01-11T12:45:15;35.50;;;21.95;;
74894;SDS011;63447;49.446;8.666;2024-01-11T12:47:41;32.00;;;20.73;;
74894;SDS011;63447;49.446;8.666;2024-01-11T12:50:09;38.28;;;21.30;;
74894;SDS011;63447;49.446;8.666;2024-01-11T12:52:37;36.92;;;22.00;;
74894;SDS011;63447;49.446;8.666;2024-01-11T12:55:03;36.05;;;22.80;;
74894;SDS011;63447;49.446;8.666;2024-01-11T12:57:31;35.45;;;21.25;;
74894;SDS011;63447;49.446;8.666;2024-01-11T13:00:08;35.35;;;21.05;;
74894;SDS011;63447;49.446;8.666;2024-01-11T13:02:37;36.08;;;21.27;;
74894;SDS011;63447;49.446;8.666;2024-01-11T13:05:03;36.15;;;20.48;;
74894;SDS011;63447;49.446;8.666;2024-01-11T13:07:30;36.63;;;21.75;;
74894;SDS011;63447;49.446;8.666;2024-01-11T13:09:55;37.33;;;21.85;;
74894;SDS011;63447;49.446;8.666;2024-01-11T13:12:23;35.35;;;21.50;;
74894;SDS011;63447;49.446;8.666;2024-01-11T13:14:48;35.30;;;20.70;;
74894;SDS011;63447;49.446;8.666;2024-01-11T13:17:15;34.40;;;21.17;;
74894;SDS011;63447;49.446;8.666;2024-01-11T13:19:41;34.58;;;20.52;;
74894;SDS011;63447;49.446;8.666;2024-01-11T13:22:06;34.78;;;19.95;;
74894;SDS011;63447;49.446;8.666;2024-01-11T13:24:31;35.03;;;21.27;;
74894;SDS011;63447;49.446;8.666;2024-01-11T13:26:57;39.10;;;23.40;;
74894;SDS011;63447;49.446;8.666;2024-01-11T13:29:24;36.28;;;21.88;;
74894;SDS011;63447;49.446;8.666;2024-01-11T13:31:50;33.58;;;20.55;;
74894;SDS011;63447;49.446;8.666;2024-01-11T13:34:15;36.63;;;20.63;;
74894;SDS011;63447;49.446;8.666;2024-01-11T13:36:41;34.55;;;20.05;;
74894;SDS011;63447;49.446;8.666;2024-01-11T13:39:06;33.13;;;20.47;;
74894;SDS011;63447;49.446;8.666;2024-01-11T13:41:34;34.75;;;20.88;;
74894;SDS011;63447;49.446;8.666;2024-01-11T13:43:59;35.35;;;20.55;;
74894;SDS011;63447;49.446;8.666;2024-01-11T13:46:27;34.75;;;20.42;;
74894;SDS011;63447;49.446;8.666;2024-01-11T13:48:53;33.70;;;19.48;;
74894;SDS011;63447;49.446;8.666;2024-01-11T13:51:23;36.13;;;21.40;;
74894;SDS011;63447;49.446;8.666;2024-01-11T13:53:48;35.93;;;20.33;;
74894;SDS011;63447;49.446;8.666;2024-01-11T13:56:14;35.13;;;20.63;;
74894;SDS011;63447;49.446;8.666;2024-01-11T13:58:39;33.88;;;19.75;;
74894;SDS011;63447;49.446;8.666;2024-01-11T14:01:04;37.58;;;21.00;;
74894;SDS011;63447;49.446;8.666;2024-01-11T14:03:33;36.85;;;20.05;;
74894;SDS011;63447;49.446;8.666;2024-01-11T14:05:58;34.83;;;20.58;;
74894;SDS011;63447;49.446;8.666;2024-01-11T14:08:25;32.90;;;20.50;;
74894;SDS011;63447;49.446;8.666;2024-01-11T14:10:51;32.38;;;20.00;;
74894;SDS011;63447;49.446;8.666;2024-01-11T14:13:16;37.25;;;21.58;;
74894;SDS011;63447;49.446;8.666;2024-01-11T14:15:44;32.75;;;18.90;;
74894;SDS011;63447;49.446;8.666;2024-01-11T14:18:13;36.47;;;20.52;;
74894;SDS011;63447;49.446;8.666;2024-01-11T14:20:38;34.28;;;20.10;;
74894;SDS011;63447;49.446;8.666;2024-01-11T14:23:07;33.90;;;19.58;;
74894;SDS011;63447;49.446;8.666;2024-01-11T14:25:35;34.33;;;19.92;;
74894;SDS011;63447;49.446;8.666;2024-01-11T14:28:00;32.85;;;19.88;;
74894;SDS011;63447;49.446;8.666;2024-01-11T14:30:25;34.00;;;19.25;;
74894;SDS011;63447;49.446;8.666;2024-01-11T14:32:51;33.60;;;19.63;;
74894;SDS011;63447;49.446;8.666;2024-01-11T14:35:17;38.70;;;21.15;;
74894;SDS011;63447;49.446;8.666;2024-01-11T14:37:43;37.20;;;19.73;;
74894;SDS011;63447;49.446;8.666;2024-01-11T14:40:09;36.22;;;19.73;;
74894;SDS011;63447;49.446;8.666;2024-01-11T14:42:37;35.58;;;19.63;;
74894;SDS011;63447;49.446;8.666;2024-01-11T14:45:08;36.38;;;19.13;;
74894;SDS011;63447;49.446;8.666;2024-01-11T14:47:34;36.92;;;20.80;;